sensor_id;sensor_type;location;lat;lon;timestamp;pressure;altitude;pressure_sealevel;temperature;humidity
28630;BME280;15817;42.130;24.762;2023-02-18T00:00:34;100587.25;;;9.00;47.72
28630;BME280;15817;42.130;24.762;2023-02-18T00:03:00;100610.31;;;9.04;47.97
28630;BME280;15817;42.130;24.762;2023-02-18T00:05:50;100590.78;;;8.98;48.26
28630;BME280;15817;42.130;24.762;2023-02-18T00:08:16;100597.88;;;9.02;48.05
28630;BME280;15817;42.130;24.762;2023-02-18T00:10:42;100609.41;;;9.02;48.02
28630;BME280;15817;42.130;24.762;2023-02-18T00:13:11;100604.97;;;9.03;47.55
28630;BME280;15817;42.130;24.762;2023-02-18T00:15:37;100583.69;;;8.97;47.75
28630;BME280;15817;42.130;24.762;2023-02-18T00:18:03;100597.00;;;9.01;47.55
28630;BME280;15817;42.130;24.762;2023-02-18T00:20:38;100583.72;;;9.01;47.84
28630;BME280;15817;42.130;24.762;2023-02-18T00:23:10;100580.22;;;9.02;47.87
28630;BME280;15817;42.130;24.762;2023-02-18T00:25:36;100578.44;;;9.03;47.63
28630;BME280;15817;42.130;24.762;2023-02-18T00:28:02;100575.81;;;9.04;47.57
28630;BME280;15817;42.130;24.762;2023-02-18T00:30:31;100571.34;;;9.00;47.25
28630;BME280;15817;42.130;24.762;2023-02-18T00:33:05;100588.19;;;9.04;47.25
28630;BME280;15817;42.130;24.762;2023-02-18T00:35:31;100574.88;;;8.98;47.15
28630;BME280;15817;42.130;24.762;2023-02-18T00:38:00;100570.47;;;9.01;47.01
28630;BME280;15817;42.130;24.762;2023-02-18T00:40:25;100567.84;;;9.03;47.38
28630;BME280;15817;42.130;24.762;2023-02-18T00:42:51;100563.38;;;9.00;47.50
28630;BME280;15817;42.130;24.762;2023-02-18T00:45:17;100558.97;;;8.99;47.54
28630;BME280;15817;42.130;24.762;2023-02-18T00:47:43;100553.63;;;8.98;47.46
28630;BME280;15817;42.130;24.762;2023-02-18T00:50:11;100564.34;;;9.05;47.36
28630;BME280;15817;42.130;24.762;2023-02-18T00:52:37;100542.13;;;8.96;47.58
28630;BME280;15817;42.130;24.762;2023-02-18T00:55:04;100546.47;;;8.92;47.40
28630;BME280;15817;42.130;24.762;2023-02-18T00:57:35;100545.59;;;8.92;47.50
28630;BME280;15817;42.130;24.762;2023-02-18T01:00:05;100537.59;;;8.87;47.56
28630;BME280;15817;42.130;24.762;2023-02-18T01:02:40;100541.16;;;8.88;47.64
28630;BME280;15817;42.130;24.762;2023-02-18T01:05:14;100546.34;;;8.80;48.06
28630;BME280;15817;42.130;24.762;2023-02-18T01:07:40;100526.84;;;8.78;48.74
28630;BME280;15817;42.130;24.762;2023-02-18T01:10:08;100525.03;;;8.71;48.60
28630;BME280;15817;42.130;24.762;2023-02-18T01:12:39;100514.25;;;8.59;48.65
28630;BME280;15817;42.130;24.762;2023-02-18T01:15:11;100528.38;;;8.58;48.80
28630;BME280;15817;42.130;24.762;2023-02-18T01:17:44;100517.59;;;8.44;48.96
28630;BME280;15817;42.130;24.762;2023-02-18T01:20:11;100506.97;;;8.41;49.49
28630;BME280;15817;42.130;24.762;2023-02-18T01:22:38;100518.47;;;8.42;49.34
28630;BME280;15817;42.130;24.762;2023-02-18T01:25:12;100505.06;;;8.32;49.49
28630;BME280;15817;42.130;24.762;2023-02-18T01:27:40;100508.50;;;8.27;49.47
28630;BME280;15817;42.130;24.762;2023-02-18T01:30:13;100499.59;;;8.19;49.57
28630;BME280;15817;42.130;24.762;2023-02-18T01:32:41;100504.88;;;8.20;49.80
28630;BME280;15817;42.130;24.762;2023-02-18T01:35:13;100495.06;;;8.13;50.00
28630;BME280;15817;42.130;24.762;2023-02-18T01:37:39;100491.53;;;8.13;49.97
28630;BME280;15817;42.130;24.762;2023-02-18T01:40:07;100493.34;;;8.15;50.32
28630;BME280;15817;42.130;24.762;2023-02-18T01:42:33;100493.25;;;8.11;50.12
28630;BME280;15817;42.130;24.762;2023-02-18T01:48:35;100481.72;;;8.06;50.76
28630;BME280;15817;42.130;24.762;2023-02-18T01:53:53;100480.94;;;8.13;50.75
28630;BME280;15817;42.130;24.762;2023-02-18T01:58:59;100483.47;;;8.04;50.70
28630;BME280;15817;42.130;24.762;2023-02-18T02:01:29;100502.09;;;8.11;50.62
28630;BME280;15817;42.130;24.762;2023-02-18T02:03:57;100481.69;;;8.03;51.11
28630;BME280;15817;42.130;24.762;2023-02-18T02:06:24;100488.84;;;8.10;51.28
28630;BME280;15817;42.130;24.762;2023-02-18T02:08:55;100474.63;;;8.03;51.57
28630;BME280;15817;42.130;24.762;2023-02-18T02:16:54;100481.59;;;7.98;51.88
28630;BME280;15817;42.130;24.762;2023-02-18T02:22:16;100484.13;;;7.89;51.60
28630;BME280;15817;42.130;24.762;2023-02-18T02:35:27;100491.97;;;7.81;52.09
28630;BME280;15817;42.130;24.762;2023-02-18T02:40:37;100497.25;;;7.81;52.48
28630;BME280;15817;42.130;24.762;2023-02-18T02:48:37;100514.13;;;7.88;51.73
28630;BME280;15817;42.130;24.762;2023-02-18T02:53:41;100508.06;;;7.96;51.34
28630;BME280;15817;42.130;24.762;2023-02-18T02:56:19;100514.25;;;7.97;51.89
28630;BME280;15817;42.130;24.762;2023-02-18T02:59:11;100510.69;;;7.93;51.57
28630;BME280;15817;42.130;24.762;2023-02-18T03:04:34;100505.38;;;7.93;51.74
28630;BME280;15817;42.130;24.762;2023-02-18T03:15:56;100480.63;;;7.91;50.70
28630;BME280;15817;42.130;24.762;2023-02-18T03:19:00;100481.56;;;7.93;50.24
28630;BME280;15817;42.130;24.762;2023-02-18T03:21:57;100467.47;;;7.96;50.06
28630;BME280;15817;42.130;24.762;2023-02-18T03:24:53;100481.69;;;8.04;50.28
28630;BME280;15817;42.130;24.762;2023-02-18T03:27:58;100466.56;;;7.97;50.29
28630;BME280;15817;42.130;24.762;2023-02-18T03:30:34;100460.41;;;7.98;49.77
28630;BME280;15817;42.130;24.762;2023-02-18T03:33:06;100463.09;;;7.99;49.58
28630;BME280;15817;42.130;24.762;2023-02-18T03:35:35;100470.16;;;8.00;49.52
28630;BME280;15817;42.130;24.762;2023-02-18T03:38:15;100472.91;;;8.07;49.11
28630;BME280;15817;42.130;24.762;2023-02-18T03:40:47;100483.56;;;8.11;49.28
28630;BME280;15817;42.130;24.762;2023-02-18T03:43:15;100468.50;;;8.09;49.19
28630;BME280;15817;42.130;24.762;2023-02-18T03:45:44;100483.63;;;8.16;48.84
28630;BME280;15817;42.130;24.762;2023-02-18T03:48:14;100479.19;;;8.13;48.89
28630;BME280;15817;42.130;24.762;2023-02-18T03:50:40;100478.38;;;8.19;48.64
28630;BME280;15817;42.130;24.762;2023-02-18T03:53:06;100492.56;;;8.24;48.05
28630;BME280;15817;42.130;24.762;2023-02-18T03:55:32;100484.53;;;8.16;48.39
28630;BME280;15817;42.130;24.762;2023-02-18T03:57:58;100487.19;;;8.19;48.21
28630;BME280;15817;42.130;24.762;2023-02-18T04:00:35;100486.34;;;8.22;48.34
28630;BME280;15817;42.130;24.762;2023-02-18T04:03:01;100496.13;;;8.26;48.13
28630;BME280;15817;42.130;24.762;2023-02-18T04:05:26;100497.00;;;8.25;47.86
28630;BME280;15817;42.130;24.762;2023-02-18T04:07:59;100501.47;;;8.27;47.58
28630;BME280;15817;42.130;24.762;2023-02-18T04:10:25;100506.88;;;8.35;47.44
28630;BME280;15817;42.130;24.762;2023-02-18T04:12:57;100497.16;;;8.35;47.45
28630;BME280;15817;42.130;24.762;2023-02-18T04:15:23;100499.81;;;8.34;47.49
28630;BME280;15817;42.130;24.762;2023-02-18T04:20:49;100502.44;;;8.34;47.25
28630;BME280;15817;42.130;24.762;2023-02-18T04:24:02;100502.47;;;8.35;47.32
28630;BME280;15817;42.130;24.762;2023-02-18T04:26:58;100520.22;;;8.43;47.33
28630;BME280;15817;42.130;24.762;2023-02-18T04:29:27;100502.53;;;8.39;46.91
28630;BME280;15817;42.130;24.762;2023-02-18T04:32:35;100516.84;;;8.54;46.84
28630;BME280;15817;42.130;24.762;2023-02-18T04:35:02;100515.06;;;8.52;46.98
28630;BME280;15817;42.130;24.762;2023-02-18T04:37:39;100521.28;;;8.55;46.63
28630;BME280;15817;42.130;24.762;2023-02-18T04:43:16;100537.16;;;8.54;46.86
28630;BME280;15817;42.130;24.762;2023-02-18T04:53:41;100517.88;;;8.64;46.22
28630;BME280;15817;42.130;24.762;2023-02-18T04:56:40;100505.38;;;8.57;45.98
28630;BME280;15817;42.130;24.762;2023-02-18T04:59:09;100506.38;;;8.63;46.12
28630;BME280;15817;42.130;24.762;2023-02-18T05:01:49;100504.53;;;8.59;46.40
28630;BME280;15817;42.130;24.762;2023-02-18T05:12:06;100510.78;;;8.63;45.72
28630;BME280;15817;42.130;24.762;2023-02-18T05:21:22;100513.47;;;8.64;46.05
28630;BME280;15817;42.130;24.762;2023-02-18T05:23:51;100518.81;;;8.70;45.84
28630;BME280;15817;42.130;24.762;2023-02-18T05:26:20;100507.25;;;8.64;46.04
28630;BME280;15817;42.130;24.762;2023-02-18T05:28:46;100504.59;;;8.62;46.47
28630;BME280;15817;42.130;24.762;2023-02-18T05:31:14;100507.25;;;8.62;45.88
28630;BME280;15817;42.130;24.762;2023-02-18T05:33:40;100500.19;;;8.63;46.42
28630;BME280;15817;42.130;24.762;2023-02-18T05:36:06;100494.84;;;8.61;46.34
28630;BME280;15817;42.130;24.762;2023-02-18T05:38:38;100501.09;;;8.65;46.00
28630;BME280;15817;42.130;24.762;2023-02-18T05:41:07;100490.47;;;8.66;45.81
28630;BME280;15817;42.130;24.762;2023-02-18T05:43:36;100494.09;;;8.71;45.90
28630;BME280;15817;42.130;24.762;2023-02-18T05:46:21;100499.44;;;8.78;45.66
28630;BME280;15817;42.130;24.762;2023-02-18T05:48:50;100506.56;;;8.80;45.91
28630;BME280;15817;42.130;24.762;2023-02-18T05:51:15;100505.66;;;8.77;45.66
28630;BME280;15817;42.130;24.762;2023-02-18T05:53:47;100505.66;;;8.80;45.65
28630;BME280;15817;42.130;24.762;2023-02-18T05:56:16;100519.00;;;8.84;45.73
28630;BME280;15817;42.130;24.762;2023-02-18T05:58:45;100500.31;;;8.74;46.08
28630;BME280;15817;42.130;24.762;2023-02-18T06:01:17;100504.75;;;8.75;45.88
28630;BME280;15817;42.130;24.762;2023-02-18T06:03:43;100519.81;;;8.80;45.57
28630;BME280;15817;42.130;24.762;2023-02-18T06:06:20;100504.81;;;8.82;45.25
28630;BME280;15817;42.130;24.762;2023-02-18T06:08:54;100504.91;;;8.88;45.54
28630;BME280;15817;42.130;24.762;2023-02-18T06:14:27;100494.38;;;8.96;45.31
28630;BME280;15817;42.130;24.762;2023-02-18T06:16:55;100499.72;;;9.03;44.56
28630;BME280;15817;42.130;24.762;2023-02-18T06:19:46;100517.59;;;9.20;44.59
28630;BME280;15817;42.130;24.762;2023-02-18T06:22:14;100503.44;;;9.18;44.08
28630;BME280;15817;42.130;24.762;2023-02-18T06:24:56;100512.34;;;9.23;44.42
28630;BME280;15817;42.130;24.762;2023-02-18T06:30:11;100501.69;;;9.20;44.23
28630;BME280;15817;42.130;24.762;2023-02-18T06:32:55;100499.91;;;9.20;44.31
28630;BME280;15817;42.130;24.762;2023-02-18T06:35:34;100503.50;;;9.27;44.03
28630;BME280;15817;42.130;24.762;2023-02-18T06:38:07;100513.31;;;9.34;43.70
28630;BME280;15817;42.130;24.762;2023-02-18T06:40:39;100515.97;;;9.35;43.67
28630;BME280;15817;42.130;24.762;2023-02-18T06:43:09;100518.63;;;9.32;44.32
28630;BME280;15817;42.130;24.762;2023-02-18T06:45:38;100505.28;;;9.28;44.40
28630;BME280;15817;42.130;24.762;2023-02-18T06:48:13;100503.53;;;9.28;44.31
28630;BME280;15817;42.130;24.762;2023-02-18T06:50:58;100487.66;;;9.33;44.15
28630;BME280;15817;42.130;24.762;2023-02-18T06:53:41;100474.47;;;9.43;44.40
28630;BME280;15817;42.130;24.762;2023-02-18T06:57:17;100472.78;;;9.53;44.44
28630;BME280;15817;42.130;24.762;2023-02-18T07:00:03;100471.94;;;9.60;44.04
28630;BME280;15817;42.130;24.762;2023-02-18T07:02:45;100463.97;;;9.60;43.62
28630;BME280;15817;42.130;24.762;2023-02-18T07:08:40;100469.34;;;9.69;44.24
28630;BME280;15817;42.130;24.762;2023-02-18T07:11:15;100462.28;;;9.73;44.26
28630;BME280;15817;42.130;24.762;2023-02-18T07:13:54;100484.47;;;9.78;44.57
28630;BME280;15817;42.130;24.762;2023-02-18T07:16:20;100488.06;;;9.86;44.33
28630;BME280;15817;42.130;24.762;2023-02-18T07:18:49;100480.97;;;9.87;44.47
28630;BME280;15817;42.130;24.762;2023-02-18T07:21:21;100461.56;;;9.98;43.74
28630;BME280;15817;42.130;24.762;2023-02-18T07:23:56;100458.13;;;10.16;43.22
28630;BME280;15817;42.130;24.762;2023-02-18T07:26:23;100456.44;;;10.24;42.67
28630;BME280;15817;42.130;24.762;2023-02-18T07:28:58;100465.28;;;10.28;42.61
28630;BME280;15817;42.130;24.762;2023-02-18T07:31:37;100459.13;;;10.32;42.92
28630;BME280;15817;42.130;24.762;2023-02-18T07:34:05;100469.81;;;10.45;42.54
28630;BME280;15817;42.130;24.762;2023-02-18T07:36:52;100443.25;;;10.48;42.34
28630;BME280;15817;42.130;24.762;2023-02-18T07:39:18;100436.19;;;10.58;41.91
28630;BME280;15817;42.130;24.762;2023-02-18T07:41:48;100422.91;;;10.69;41.61
28630;BME280;15817;42.130;24.762;2023-02-18T07:44:19;100421.16;;;10.72;41.92
28630;BME280;15817;42.130;24.762;2023-02-18T07:46:54;100438.00;;;10.73;41.58
28630;BME280;15817;42.130;24.762;2023-02-18T07:49:35;100430.94;;;10.82;41.70
28630;BME280;15817;42.130;24.762;2023-02-18T07:52:07;100425.59;;;10.78;41.42
28630;BME280;15817;42.130;24.762;2023-02-18T07:54:42;100432.69;;;10.88;41.36
28630;BME280;15817;42.130;24.762;2023-02-18T07:57:15;100420.28;;;10.87;41.31
28630;BME280;15817;42.130;24.762;2023-02-18T07:59:44;100422.94;;;10.82;41.51
28630;BME280;15817;42.130;24.762;2023-02-18T08:02:24;100414.09;;;10.83;41.75
28630;BME280;15817;42.130;24.762;2023-02-18T08:04:53;100420.31;;;10.95;41.68
28630;BME280;15817;42.130;24.762;2023-02-18T08:15:27;100412.34;;;11.39;41.38
28630;BME280;15817;42.130;24.762;2023-02-18T08:18:03;100423.84;;;11.54;40.69
28630;BME280;15817;42.130;24.762;2023-02-18T08:23:23;100421.16;;;11.97;40.14
28630;BME280;15817;42.130;24.762;2023-02-18T08:25:52;100413.16;;;11.97;40.04
28630;BME280;15817;42.130;24.762;2023-02-18T08:28:28;100397.16;;;11.91;39.89
28630;BME280;15817;42.130;24.762;2023-02-18T08:31:04;100411.38;;;11.94;40.04
28630;BME280;15817;42.130;24.762;2023-02-18T08:33:33;100401.63;;;11.87;40.41
28630;BME280;15817;42.130;24.762;2023-02-18T08:36:18;100401.59;;;11.89;40.49
28630;BME280;15817;42.130;24.762;2023-02-18T08:38:44;100416.69;;;12.02;40.38
28630;BME280;15817;42.130;24.762;2023-02-18T08:41:10;100405.09;;;12.12;40.53
28630;BME280;15817;42.130;24.762;2023-02-18T08:43:36;100413.03;;;12.24;40.38
28630;BME280;15817;42.130;24.762;2023-02-18T08:46:02;100399.66;;;12.40;40.18
28630;BME280;15817;42.130;24.762;2023-02-18T08:48:28;100405.81;;;12.46;39.46
28630;BME280;15817;42.130;24.762;2023-02-18T08:50:58;100419.03;;;12.74;39.56
28630;BME280;15817;42.130;24.762;2023-02-18T08:53:28;100414.50;;;12.88;39.46
28630;BME280;15817;42.130;24.762;2023-02-18T08:55:54;100416.38;;;12.74;39.44
28630;BME280;15817;42.130;24.762;2023-02-18T08:58:20;100420.81;;;12.72;39.66
28630;BME280;15817;42.130;24.762;2023-02-18T09:00:48;100419.09;;;12.67;39.56
28630;BME280;15817;42.130;24.762;2023-02-18T09:03:14;100418.09;;;12.82;38.78
28630;BME280;15817;42.130;24.762;2023-02-18T09:05:43;100413.47;;;13.09;38.50
28630;BME280;15817;42.130;24.762;2023-02-18T09:08:09;100409.81;;;13.26;38.42
28630;BME280;15817;42.130;24.762;2023-02-18T09:10:35;100407.94;;;13.36;38.25
28630;BME280;15817;42.130;24.762;2023-02-18T09:13:01;100414.09;;;13.46;38.01
28630;BME280;15817;42.130;24.762;2023-02-18T09:15:27;100401.72;;;13.32;37.91
28630;BME280;15817;42.130;24.762;2023-02-18T09:17:53;100405.28;;;13.34;37.88
28630;BME280;15817;42.130;24.762;2023-02-18T09:20:21;100403.50;;;13.33;38.06
28630;BME280;15817;42.130;24.762;2023-02-18T09:22:47;100402.53;;;13.40;38.04
28630;BME280;15817;42.130;24.762;2023-02-18T09:25:19;100388.16;;;13.54;37.81
28630;BME280;15817;42.130;24.762;2023-02-18T09:27:49;100410.31;;;13.66;37.57
28630;BME280;15817;42.130;24.762;2023-02-18T09:30:18;100382.53;;;13.84;36.98
28630;BME280;15817;42.130;24.762;2023-02-18T09:32:46;100392.25;;;13.88;37.10
28630;BME280;15817;42.130;24.762;2023-02-18T09:35:12;100399.44;;;13.85;37.08
28630;BME280;15817;42.130;24.762;2023-02-18T09:37:43;100391.50;;;13.78;37.14
28630;BME280;15817;42.130;24.762;2023-02-18T09:40:39;100404.03;;;13.72;37.62
28630;BME280;15817;42.130;24.762;2023-02-18T09:43:20;100396.06;;;13.67;37.32
28630;BME280;15817;42.130;24.762;2023-02-18T09:46:16;100402.41;;;13.54;37.53
28630;BME280;15817;42.130;24.762;2023-02-18T09:49:28;100396.69;;;13.91;36.96
28630;BME280;15817;42.130;24.762;2023-02-18T09:52:21;100408.03;;;14.14;36.69
28630;BME280;15817;42.130;24.762;2023-02-18T09:54:49;100412.38;;;14.21;36.32
28630;BME280;15817;42.130;24.762;2023-02-18T09:57:53;100404.56;;;14.07;36.41
28630;BME280;15817;42.130;24.762;2023-02-18T10:00:24;100393.53;;;14.32;36.35
28630;BME280;15817;42.130;24.762;2023-02-18T10:03:04;100385.16;;;14.61;36.04
28630;BME280;15817;42.130;24.762;2023-02-18T10:05:35;100374.09;;;14.83;35.93
28630;BME280;15817;42.130;24.762;2023-02-18T10:08:29;100363.41;;;14.83;35.66
28630;BME280;15817;42.130;24.762;2023-02-18T10:10:59;100348.19;;;14.85;35.70
28630;BME280;15817;42.130;24.762;2023-02-18T10:13:29;100348.56;;;15.16;35.21
28630;BME280;15817;42.130;24.762;2023-02-18T10:15:58;100343.66;;;15.41;34.23
28630;BME280;15817;42.130;24.762;2023-02-18T10:18:37;100351.56;;;15.49;33.83
28630;BME280;15817;42.130;24.762;2023-02-18T10:21:14;100336.41;;;15.46;34.23
28630;BME280;15817;42.130;24.762;2023-02-18T10:23:49;100319.75;;;15.31;34.55
28630;BME280;15817;42.130;24.762;2023-02-18T10:26:22;100328.72;;;15.28;34.18
28630;BME280;15817;42.130;24.762;2023-02-18T10:28:47;100341.72;;;15.49;34.26
28630;BME280;15817;42.130;24.762;2023-02-18T10:31:27;100328.66;;;15.33;33.83
28630;BME280;15817;42.130;24.762;2023-02-18T10:37:30;100317.81;;;15.37;34.01
28630;BME280;15817;42.130;24.762;2023-02-18T10:44:03;100304.63;;;15.74;33.82
28630;BME280;15817;42.130;24.762;2023-02-18T10:52:17;100294.66;;;15.81;32.90
28630;BME280;15817;42.130;24.762;2023-02-18T10:54:58;100291.03;;;15.83;32.81
28630;BME280;15817;42.130;24.762;2023-02-18T10:57:30;100298.81;;;15.97;32.47
28630;BME280;15817;42.130;24.762;2023-02-18T11:00:25;100296.69;;;16.13;32.28
28630;BME280;15817;42.130;24.762;2023-02-18T11:03:16;100284.66;;;16.29;32.65
28630;BME280;15817;42.130;24.762;2023-02-18T11:05:43;100278.94;;;16.46;32.27
28630;BME280;15817;42.130;24.762;2023-02-18T11:08:27;100286.19;;;16.41;32.50
28630;BME280;15817;42.130;24.762;2023-02-18T11:10:54;100289.88;;;16.37;32.59
28630;BME280;15817;42.130;24.762;2023-02-18T11:13:28;100272.16;;;16.28;33.02
28630;BME280;15817;42.130;24.762;2023-02-18T11:16:04;100262.28;;;16.30;32.75
28630;BME280;15817;42.130;24.762;2023-02-18T11:18:44;100248.91;;;16.27;33.68
28630;BME280;15817;42.130;24.762;2023-02-18T11:25:30;100260.91;;;16.12;33.47
28630;BME280;15817;42.130;24.762;2023-02-18T11:28:31;100237.78;;;16.05;33.93
28630;BME280;15817;42.130;24.762;2023-02-18T11:31:01;100237.25;;;16.29;33.29
28630;BME280;15817;42.130;24.762;2023-02-18T11:33:49;100235.00;;;16.50;33.16
28630;BME280;15817;42.130;24.762;2023-02-18T11:36:29;100239.16;;;16.61;32.82
28630;BME280;15817;42.130;24.762;2023-02-18T11:39:20;100235.38;;;16.72;32.91
28630;BME280;15817;42.130;24.762;2023-02-18T11:42:10;100238.09;;;16.70;33.01
28630;BME280;15817;42.130;24.762;2023-02-18T11:44:47;100227.66;;;16.56;32.72
28630;BME280;15817;42.130;24.762;2023-02-18T11:49:42;100220.84;;;16.42;32.91
28630;BME280;15817;42.130;24.762;2023-02-18T11:52:24;100220.81;;;16.43;32.70
28630;BME280;15817;42.130;24.762;2023-02-18T11:55:31;100228.59;;;16.54;32.75
28630;BME280;15817;42.130;24.762;2023-02-18T11:58:05;100230.31;;;16.58;32.68
28630;BME280;15817;42.130;24.762;2023-02-18T12:00:48;100221.88;;;16.73;32.19
28630;BME280;15817;42.130;24.762;2023-02-18T12:03:39;100205.44;;;16.85;32.21
28630;BME280;15817;42.130;24.762;2023-02-18T12:06:21;100216.13;;;16.88;32.50
28630;BME280;15817;42.130;24.762;2023-02-18T12:12:05;100210.75;;;16.88;32.47
28630;BME280;15817;42.130;24.762;2023-02-18T12:14:35;100198.19;;;16.89;32.99
28630;BME280;15817;42.130;24.762;2023-02-18T12:28:52;100172.56;;;17.08;33.51
28630;BME280;15817;42.130;24.762;2023-02-18T12:31:50;100176.66;;;17.23;33.82
28630;BME280;15817;42.130;24.762;2023-02-18T12:48:02;100159.06;;;17.11;34.39
28630;BME280;15817;42.130;24.762;2023-02-18T12:50:56;100151.81;;;17.15;34.29
28630;BME280;15817;42.130;24.762;2023-02-18T13:03:47;100129.34;;;16.85;34.92
28630;BME280;15817;42.130;24.762;2023-02-18T13:11:00;100139.44;;;17.08;35.09
28630;BME280;15817;42.130;24.762;2023-02-18T13:17:59;100119.41;;;17.19;35.07
28630;BME280;15817;42.130;24.762;2023-02-18T13:21:11;100121.88;;;17.27;35.09
28630;BME280;15817;42.130;24.762;2023-02-18T13:24:10;100112.75;;;17.32;34.85
28630;BME280;15817;42.130;24.762;2023-02-18T13:26:43;100131.78;;;17.25;35.07
28630;BME280;15817;42.130;24.762;2023-02-18T13:29:26;100122.97;;;17.20;35.16
28630;BME280;15817;42.130;24.762;2023-02-18T13:32:00;100134.41;;;17.28;35.50
28630;BME280;15817;42.130;24.762;2023-02-18T13:41:18;100130.50;;;16.75;37.51
28630;BME280;15817;42.130;24.762;2023-02-18T13:43:44;100122.03;;;16.56;37.54
28630;BME280;15817;42.130;24.762;2023-02-18T13:46:24;100126.84;;;16.43;38.45
28630;BME280;15817;42.130;24.762;2023-02-18T13:51:43;100130.13;;;16.54;37.58
28630;BME280;15817;42.130;24.762;2023-02-18T13:54:32;100116.69;;;16.54;37.33
28630;BME280;15817;42.130;24.762;2023-02-18T13:57:02;100113.56;;;16.73;36.80
28630;BME280;15817;42.130;24.762;2023-02-18T13:59:58;100126.75;;;16.82;36.95
28630;BME280;15817;42.130;24.762;2023-02-18T14:02:28;100127.09;;;16.70;37.06
28630;BME280;15817;42.130;24.762;2023-02-18T14:10:42;100120.97;;;16.61;36.67
28630;BME280;15817;42.130;24.762;2023-02-18T14:22:50;100135.09;;;16.71;36.48
28630;BME280;15817;42.130;24.762;2023-02-18T14:25:38;100130.97;;;16.56;36.50
28630;BME280;15817;42.130;24.762;2023-02-18T14:28:44;100127.63;;;16.48;36.61
28630;BME280;15817;42.130;24.762;2023-02-18T14:34:16;100132.16;;;16.45;36.98
28630;BME280;15817;42.130;24.762;2023-02-18T14:39:52;100120.06;;;16.27;37.59
28630;BME280;15817;42.130;24.762;2023-02-18T14:51:30;100110.72;;;16.08;38.05
28630;BME280;15817;42.130;24.762;2023-02-18T14:54:14;100105.50;;;16.03;38.54
28630;BME280;15817;42.130;24.762;2023-02-18T14:57:07;100118.78;;;16.08;38.30
28630;BME280;15817;42.130;24.762;2023-02-18T14:59:56;100099.28;;;16.01;38.62
28630;BME280;15817;42.130;24.762;2023-02-18T15:03:13;100117.88;;;16.09;38.56
28630;BME280;15817;42.130;24.762;2023-02-18T15:05:54;100103.75;;;16.01;38.37
28630;BME280;15817;42.130;24.762;2023-02-18T15:12:05;100093.31;;;15.88;38.75
28630;BME280;15817;42.130;24.762;2023-02-18T15:14:42;100117.44;;;15.90;38.82
28630;BME280;15817;42.130;24.762;2023-02-18T15:17:47;100105.88;;;15.86;38.39
28630;BME280;15817;42.130;24.762;2023-02-18T15:20:39;100096.00;;;15.88;38.59
28630;BME280;15817;42.130;24.762;2023-02-18T15:23:24;100094.03;;;15.95;38.97
28630;BME280;15817;42.130;24.762;2023-02-18T15:26:44;100089.81;;;15.85;38.91
28630;BME280;15817;42.130;24.762;2023-02-18T15:29:25;100103.19;;;15.86;38.37
28630;BME280;15817;42.130;24.762;2023-02-18T15:31:57;100089.69;;;15.91;38.22
28630;BME280;15817;42.130;24.762;2023-02-18T15:34:41;100092.38;;;15.91;37.99
28630;BME280;15817;42.130;24.762;2023-02-18T15:40:17;100107.44;;;15.97;38.06
28630;BME280;15817;42.130;24.762;2023-02-18T15:42:49;100104.16;;;15.84;38.37
28630;BME280;15817;42.130;24.762;2023-02-18T15:45:35;100120.84;;;15.97;38.16
28630;BME280;15817;42.130;24.762;2023-02-18T15:48:35;100128.06;;;15.93;37.91
28630;BME280;15817;42.130;24.762;2023-02-18T15:51:28;100118.50;;;15.81;38.41
28630;BME280;15817;42.130;24.762;2023-02-18T15:54:17;100113.28;;;15.77;38.38
28630;BME280;15817;42.130;24.762;2023-02-18T15:57:00;100116.09;;;15.69;38.42
28630;BME280;15817;42.130;24.762;2023-02-18T16:02:56;100118.94;;;15.63;38.88
28630;BME280;15817;42.130;24.762;2023-02-18T16:05:30;100115.66;;;15.47;39.76
28630;BME280;15817;42.130;24.762;2023-02-18T16:08:25;100128.31;;;15.42;39.55
28630;BME280;15817;42.130;24.762;2023-02-18T16:11:13;100119.50;;;15.36;39.03
28630;BME280;15817;42.130;24.762;2023-02-18T16:14:26;100118.75;;;15.29;39.69
28630;BME280;15817;42.130;24.762;2023-02-18T16:17:35;100121.53;;;15.25;39.87
28630;BME280;15817;42.130;24.762;2023-02-18T16:31:18;100141.63;;;15.02;40.42
28630;BME280;15817;42.130;24.762;2023-02-18T16:34:21;100159.50;;;15.02;40.74
28630;BME280;15817;42.130;24.762;2023-02-18T16:37:34;100156.75;;;15.06;40.17
28630;BME280;15817;42.130;24.762;2023-02-18T16:40:36;100161.06;;;15.13;40.19
28630;BME280;15817;42.130;24.762;2023-02-18T16:43:35;100160.16;;;15.13;39.92
28630;BME280;15817;42.130;24.762;2023-02-18T16:49:23;100160.31;;;15.07;39.86
28630;BME280;15817;42.130;24.762;2023-02-18T16:51:59;100162.81;;;15.14;39.77
28630;BME280;15817;42.130;24.762;2023-02-18T16:54:46;100169.03;;;15.16;39.70
28630;BME280;15817;42.130;24.762;2023-02-18T16:57:49;100168.19;;;15.14;39.92
28630;BME280;15817;42.130;24.762;2023-02-18T17:00:36;100160.19;;;15.11;39.71
28630;BME280;15817;42.130;24.762;2023-02-18T17:03:32;100159.41;;;15.08;39.64
28630;BME280;15817;42.130;24.762;2023-02-18T17:06:51;100171.06;;;15.04;39.53
28630;BME280;15817;42.130;24.762;2023-02-18T17:17:48;100189.16;;;14.91;39.92
28630;BME280;15817;42.130;24.762;2023-02-18T17:20:52;100184.84;;;14.84;40.13
28630;BME280;15817;42.130;24.762;2023-02-18T17:23:49;100178.78;;;14.74;40.47
28630;BME280;15817;42.130;24.762;2023-02-18T17:26:24;100185.94;;;14.72;40.79
28630;BME280;15817;42.130;24.762;2023-02-18T17:29:15;100189.47;;;14.76;40.48
28630;BME280;15817;42.130;24.762;2023-02-18T17:32:30;100190.47;;;14.69;40.85
28630;BME280;15817;42.130;24.762;2023-02-18T17:35:20;100178.91;;;14.65;40.33